createdAt,value
2022-12-04T00:00:25.241Z,21.69
2022-12-04T00:01:29.518Z,21.69
2022-12-04T00:02:33.789Z,21.69
2022-12-04T00:03:38.139Z,21.69
2022-12-04T00:04:42.428Z,21.69
2022-12-04T00:05:46.831Z,21.7
2022-12-04T00:06:55.494Z,21.69
2022-12-04T00:08:02.501Z,21.67
2022-12-04T00:09:07.071Z,21.68
2022-12-04T00:10:11.300Z,21.67
2022-12-04T00:11:15.507Z,21.66
2022-12-04T00:12:19.735Z,21.68
2022-12-04T00:13:24.028Z,21.67
2022-12-04T00:14:28.238Z,21.67
2022-12-04T00:15:32.481Z,21.64
2022-12-04T00:16:36.814Z,21.64
2022-12-04T00:17:41.415Z,21.63
2022-12-04T00:18:45.663Z,21.63
2022-12-04T00:19:49.889Z,21.64
2022-12-04T00:20:54.503Z,21.63
2022-12-04T00:21:58.720Z,21.61
2022-12-04T00:23:03.058Z,21.6
2022-12-04T00:24:07.254Z,21.6
2022-12-04T00:25:11.464Z,21.6
2022-12-04T00:26:15.707Z,21.6
2022-12-04T00:27:19.956Z,21.6
2022-12-04T00:28:24.203Z,21.62
2022-12-04T00:29:28.498Z,21.63
2022-12-04T00:30:32.716Z,21.62
2022-12-04T00:31:37.053Z,21.63
2022-12-04T00:32:41.493Z,21.61
2022-12-04T00:33:45.719Z,21.6
2022-12-04T00:34:50.002Z,21.59
2022-12-04T00:35:54.228Z,21.57
2022-12-04T00:36:58.466Z,21.58
2022-12-04T00:38:02.710Z,21.56
2022-12-04T00:39:06.953Z,21.58
2022-12-04T00:40:11.182Z,21.59
2022-12-04T00:41:15.483Z,21.57
2022-12-04T00:42:19.733Z,21.57
2022-12-04T00:43:23.956Z,21.56
2022-12-04T00:44:28.215Z,21.55
2022-12-04T00:45:32.487Z,21.57
2022-12-04T00:46:36.906Z,21.56
2022-12-04T00:47:41.127Z,21.57
2022-12-04T00:48:45.333Z,21.56
2022-12-04T00:49:49.544Z,21.55
2022-12-04T00:50:53.838Z,21.55
2022-12-04T00:51:58.055Z,21.54
2022-12-04T00:53:02.274Z,21.55
2022-12-04T00:54:06.555Z,21.53
2022-12-04T00:55:10.775Z,21.53
2022-12-04T00:56:15.149Z,21.54
2022-12-04T00:57:21.787Z,21.55
2022-12-04T00:58:26.023Z,21.53
2022-12-04T00:59:30.263Z,21.53
2022-12-04T01:00:34.485Z,21.53
2022-12-04T01:01:38.984Z,21.53
2022-12-04T01:02:43.532Z,21.52
2022-12-04T01:03:48.027Z,21.5
2022-12-04T01:04:52.277Z,21.5
2022-12-04T01:05:56.514Z,21.52
2022-12-04T01:07:04.902Z,21.5
2022-12-04T01:08:09.471Z,21.5
2022-12-04T01:09:13.991Z,21.49
2022-12-04T01:10:18.233Z,21.48
2022-12-04T01:11:22.584Z,21.48
2022-12-04T01:12:26.858Z,21.5
2022-12-04T01:13:31.090Z,21.49
2022-12-04T01:14:35.307Z,21.48
2022-12-04T01:15:39.519Z,21.47
2022-12-04T01:16:43.895Z,21.45
2022-12-04T01:17:48.387Z,21.47
2022-12-04T01:18:52.610Z,21.48
2022-12-04T01:19:57.224Z,21.48
2022-12-04T01:21:01.654Z,21.47
2022-12-04T01:22:05.876Z,21.44
2022-12-04T01:23:10.099Z,21.46
2022-12-04T01:24:14.321Z,21.43
2022-12-04T01:25:18.545Z,21.45
2022-12-04T01:26:22.744Z,21.45
2022-12-04T01:27:27.161Z,21.45
2022-12-04T01:28:31.354Z,21.42
2022-12-04T01:29:35.573Z,21.44
2022-12-04T01:30:39.815Z,21.43
2022-12-04T01:31:44.088Z,21.41
2022-12-04T01:32:48.475Z,21.42
2022-12-04T01:33:52.707Z,21.41
2022-12-04T01:34:56.983Z,21.41
2022-12-04T01:36:01.223Z,21.41
2022-12-04T01:37:05.450Z,21.41
2022-12-04T01:38:09.686Z,21.42
2022-12-04T01:39:13.969Z,21.4
2022-12-04T01:40:18.174Z,21.37
2022-12-04T01:41:22.484Z,21.39
2022-12-04T01:42:26.696Z,21.37
2022-12-04T01:43:30.942Z,21.38
2022-12-04T01:44:35.186Z,21.39
2022-12-04T01:45:39.511Z,21.37
2022-12-04T01:46:43.951Z,21.39
2022-12-04T01:47:48.180Z,21.37
2022-12-04T01:48:52.378Z,21.38
2022-12-04T01:49:57.020Z,21.39
2022-12-04T01:51:01.663Z,21.39
2022-12-04T01:52:05.891Z,21.4
2022-12-04T01:53:10.113Z,21.38
2022-12-04T01:54:14.329Z,21.38
2022-12-04T01:55:18.563Z,21.38
2022-12-04T01:56:22.794Z,21.4
2022-12-04T01:57:27.066Z,21.37
2022-12-04T01:58:31.312Z,21.38
2022-12-04T01:59:36.571Z,21.37
2022-12-04T02:00:40.812Z,21.37
2022-12-04T02:01:45.269Z,21.37
2022-12-04T02:02:49.739Z,21.36
2022-12-04T02:03:54.331Z,21.39
2022-12-04T02:04:58.587Z,21.39
2022-12-04T02:06:02.813Z,21.37
2022-12-04T02:07:07.050Z,21.36
2022-12-04T02:08:11.408Z,21.38
2022-12-04T02:09:15.890Z,21.36
2022-12-04T02:10:29.280Z,21.36
2022-12-04T02:11:33.518Z,21.36
2022-12-04T02:12:37.759Z,21.34
2022-12-04T02:13:42.000Z,21.33
2022-12-04T02:14:46.236Z,21.34
2022-12-04T02:15:50.471Z,21.34
2022-12-04T02:16:54.770Z,21.32
2022-12-04T02:17:59.192Z,21.32
2022-12-04T02:19:03.411Z,21.32
2022-12-04T02:20:07.671Z,21.28
2022-12-04T02:21:11.912Z,21.29
2022-12-04T02:22:16.153Z,21.29
2022-12-04T02:23:20.416Z,21.33
2022-12-04T02:24:24.652Z,21.32
2022-12-04T02:25:28.891Z,21.3
2022-12-04T02:26:33.130Z,21.3
2022-12-04T02:27:37.369Z,21.3
2022-12-04T02:28:41.647Z,21.32
2022-12-04T02:29:45.899Z,21.3
2022-12-04T02:30:50.156Z,21.27
2022-12-04T02:31:54.666Z,21.32
2022-12-04T02:32:58.898Z,21.31
2022-12-04T02:34:03.138Z,21.3
2022-12-04T02:35:07.362Z,21.29
2022-12-04T02:36:11.633Z,21.3
2022-12-04T02:37:15.890Z,21.32
2022-12-04T02:38:20.142Z,21.3
2022-12-04T02:39:24.343Z,21.28
2022-12-04T02:40:28.588Z,21.32
2022-12-04T02:41:32.817Z,21.31
2022-12-04T02:42:37.048Z,21.3
2022-12-04T02:43:41.553Z,21.29
2022-12-04T02:44:45.796Z,21.3
2022-12-04T02:45:50.111Z,21.28
2022-12-04T02:46:54.572Z,21.26
2022-12-04T02:47:58.794Z,21.26
2022-12-04T02:49:03.027Z,21.26
2022-12-04T02:50:07.326Z,21.27
2022-12-04T02:51:11.519Z,21.26
2022-12-04T02:52:15.860Z,21.23
2022-12-04T02:53:20.102Z,21.25
2022-12-04T02:54:24.309Z,21.26
2022-12-04T02:55:28.555Z,21.27
2022-12-04T02:56:32.776Z,21.24
2022-12-04T02:57:36.988Z,21.27
2022-12-04T02:58:41.204Z,21.26
2022-12-04T02:59:45.431Z,21.23
2022-12-04T03:00:49.720Z,21.19
2022-12-04T03:01:54.201Z,21.23
2022-12-04T03:02:58.934Z,21.21
2022-12-04T03:04:03.410Z,21.22
2022-12-04T03:05:07.668Z,21.23
2022-12-04T03:06:11.902Z,21.22
2022-12-04T03:07:16.133Z,21.22
2022-12-04T03:08:20.497Z,21.22
2022-12-04T03:09:24.796Z,21.2
2022-12-04T03:10:29.027Z,21.22
2022-12-04T03:11:33.261Z,21.22
2022-12-04T03:12:37.527Z,21.23
2022-12-04T03:13:41.748Z,21.22
2022-12-04T03:14:45.963Z,21.21
2022-12-04T03:15:50.178Z,21.18
2022-12-04T03:16:54.439Z,21.19
2022-12-04T03:17:59.022Z,21.18
2022-12-04T03:19:03.261Z,21.17
2022-12-04T03:20:07.491Z,21.2
2022-12-04T03:21:11.736Z,21.17
2022-12-04T03:22:16.002Z,21.2
2022-12-04T03:23:20.216Z,21.19
2022-12-04T03:24:26.727Z,21.18
2022-12-04T03:25:30.982Z,21.18
2022-12-04T03:26:35.250Z,21.16
2022-12-04T03:27:39.513Z,21.17
2022-12-04T03:28:43.767Z,21.16
2022-12-04T03:29:47.981Z,21.13
2022-12-04T03:30:52.269Z,21.14
2022-12-04T03:31:56.656Z,21.14
2022-12-04T03:33:00.901Z,21.17
2022-12-04T03:34:05.124Z,21.14
2022-12-04T03:35:09.364Z,21.14
2022-12-04T03:36:13.588Z,21.12
2022-12-04T03:37:17.813Z,21.13
2022-12-04T03:38:22.051Z,21.15
2022-12-04T03:39:26.282Z,21.11
2022-12-04T03:40:31.530Z,21.14
2022-12-04T03:41:35.749Z,21.14
2022-12-04T03:42:40.022Z,21.13
2022-12-04T03:43:44.256Z,21.14
2022-12-04T03:44:48.471Z,21.14
2022-12-04T03:45:53.793Z,21.15
2022-12-04T03:46:58.354Z,21.15
2022-12-04T03:48:02.601Z,21.15
2022-12-04T03:49:06.818Z,21.14
2022-12-04T03:50:11.106Z,21.12
2022-12-04T03:51:15.330Z,21.14
2022-12-04T03:52:19.584Z,21.14
2022-12-04T03:53:23.827Z,21.14
2022-12-04T03:54:28.037Z,21.11
2022-12-04T03:55:32.272Z,21.12
2022-12-04T03:56:36.498Z,21.12
2022-12-04T03:57:40.738Z,21.12
2022-12-04T03:58:44.967Z,21.11
2022-12-04T03:59:54.025Z,21.11
2022-12-04T04:01:00.788Z,21.1
2022-12-04T04:02:05.281Z,21.12
2022-12-04T04:03:09.898Z,21.12
2022-12-04T04:04:14.244Z,21.09
2022-12-04T04:05:18.528Z,21.09
2022-12-04T04:06:24.149Z,21.09
2022-12-04T04:07:33.495Z,21.06
2022-12-04T04:08:39.572Z,21.06
2022-12-04T04:09:43.821Z,21.05
2022-12-04T04:10:48.039Z,21.07
2022-12-04T04:11:52.255Z,21.08
2022-12-04T04:12:56.487Z,21.05
2022-12-04T04:14:00.714Z,21.05
2022-12-04T04:15:04.931Z,21.04
2022-12-04T04:16:09.223Z,21.03
2022-12-04T04:17:13.751Z,21.06
2022-12-04T04:18:17.993Z,21.02
2022-12-04T04:19:22.258Z,21.02
2022-12-04T04:20:26.464Z,21
2022-12-04T04:21:30.719Z,21.03
2022-12-04T04:22:34.975Z,21.01
2022-12-04T04:23:39.255Z,21.01
2022-12-04T04:24:43.495Z,21.07
2022-12-04T04:25:47.724Z,21.07
2022-12-04T04:26:51.952Z,21.07
2022-12-04T04:27:56.158Z,21.06
2022-12-04T04:29:00.423Z,21.04
2022-12-04T04:30:04.675Z,21.04
2022-12-04T04:31:08.938Z,21.01
2022-12-04T04:32:13.375Z,21.02
2022-12-04T04:33:17.600Z,21.05
2022-12-04T04:34:21.834Z,21.08
2022-12-04T04:35:26.060Z,21.07
2022-12-04T04:36:30.513Z,21.08
2022-12-04T04:37:34.731Z,21.04
2022-12-04T04:38:38.965Z,21.03
2022-12-04T04:39:43.220Z,21
2022-12-04T04:40:47.446Z,20.99
2022-12-04T04:41:51.679Z,21.02
2022-12-04T04:42:55.935Z,21.05
2022-12-04T04:44:00.154Z,21.01
2022-12-04T04:45:04.369Z,20.99
2022-12-04T04:46:08.644Z,20.99
2022-12-04T04:47:12.982Z,20.98
2022-12-04T04:48:17.219Z,20.97
2022-12-04T04:49:21.444Z,21.03
2022-12-04T04:50:25.639Z,21.04
2022-12-04T04:51:29.880Z,21.03
2022-12-04T04:52:34.092Z,21.01
2022-12-04T04:53:38.327Z,20.99
2022-12-04T04:54:42.536Z,21
2022-12-04T04:55:46.791Z,20.98
2022-12-04T04:56:51.022Z,20.95
2022-12-04T04:57:55.245Z,20.94
2022-12-04T04:58:59.486Z,20.93
2022-12-04T05:00:03.703Z,20.94
2022-12-04T05:01:07.918Z,20.94
2022-12-04T05:02:12.217Z,20.99
2022-12-04T05:03:16.808Z,20.94
2022-12-04T05:04:21.354Z,20.94
2022-12-04T05:05:25.610Z,20.99
2022-12-04T05:06:29.835Z,21.03
2022-12-04T05:07:34.156Z,21.1
2022-12-04T05:08:38.544Z,21.16
2022-12-04T05:09:42.781Z,21.24
2022-12-04T05:10:47.030Z,21.37
2022-12-04T05:11:51.262Z,21.49
2022-12-04T05:12:55.491Z,21.61
2022-12-04T05:13:59.724Z,21.72
2022-12-04T05:15:03.950Z,21.85
2022-12-04T05:16:08.249Z,21.96
2022-12-04T05:17:13.137Z,22.08
2022-12-04T05:18:17.384Z,22.16
2022-12-04T05:19:21.650Z,22.2
2022-12-04T05:20:25.850Z,22.3
2022-12-04T05:21:30.099Z,22.35
2022-12-04T05:22:34.327Z,22.4
2022-12-04T05:23:38.543Z,22.46
2022-12-04T05:24:42.956Z,22.46
2022-12-04T05:25:47.177Z,22.51
2022-12-04T05:26:51.434Z,22.54
2022-12-04T05:27:55.666Z,22.56
2022-12-04T05:29:00.019Z,22.61
2022-12-04T05:30:04.261Z,22.64
2022-12-04T05:31:08.580Z,22.66
2022-12-04T05:32:13.043Z,22.7
2022-12-04T05:33:17.279Z,22.73
2022-12-04T05:34:21.500Z,22.73
2022-12-04T05:35:25.724Z,22.73
2022-12-04T05:36:32.212Z,22.79
2022-12-04T05:37:36.476Z,22.83
2022-12-04T05:38:40.700Z,22.85
2022-12-04T05:39:44.933Z,22.86
2022-12-04T05:40:49.130Z,22.84
2022-12-04T05:41:53.346Z,22.85
2022-12-04T05:42:57.574Z,22.88
2022-12-04T05:44:01.779Z,22.88
2022-12-04T05:45:05.998Z,22.91
2022-12-04T05:46:10.269Z,22.96
2022-12-04T05:47:14.711Z,22.93
2022-12-04T05:48:18.944Z,22.97
2022-12-04T05:49:23.170Z,22.96
2022-12-04T05:50:27.386Z,22.95
2022-12-04T05:51:31.588Z,22.96
2022-12-04T05:52:35.800Z,22.97
2022-12-04T05:53:40.055Z,22.97
2022-12-04T05:54:44.334Z,22.98
2022-12-04T05:55:48.575Z,22.98
2022-12-04T05:56:52.774Z,22.99
2022-12-04T05:57:57.017Z,22.99
2022-12-04T05:59:01.277Z,23
2022-12-04T06:00:06.524Z,23
2022-12-04T06:01:10.814Z,23
2022-12-04T06:02:15.153Z,23.02
2022-12-04T06:03:19.617Z,23.02
2022-12-04T06:04:24.013Z,23.03
2022-12-04T06:05:28.226Z,23.01
2022-12-04T06:06:32.470Z,22.99
2022-12-04T06:07:36.716Z,22.94
2022-12-04T06:08:41.159Z,22.9
2022-12-04T06:09:45.425Z,22.85
2022-12-04T06:10:49.630Z,22.82
2022-12-04T06:11:53.882Z,22.77
2022-12-04T06:12:58.104Z,22.73
2022-12-04T06:14:02.357Z,22.69
2022-12-04T06:15:06.586Z,22.66
2022-12-04T06:16:10.891Z,22.62
2022-12-04T06:17:15.262Z,22.58
2022-12-04T06:18:19.534Z,22.57
2022-12-04T06:19:23.776Z,22.56
2022-12-04T06:20:28.038Z,22.55
2022-12-04T06:21:32.649Z,22.53
2022-12-04T06:22:36.884Z,22.51
2022-12-04T06:23:41.112Z,22.49
2022-12-04T06:24:45.341Z,22.47
2022-12-04T06:25:49.775Z,22.44
2022-12-04T06:27:25.371Z,22.41
2022-12-04T06:28:32.042Z,22.39
2022-12-04T06:29:36.251Z,22.38
2022-12-04T06:30:40.462Z,22.37
2022-12-04T06:31:44.750Z,22.33
2022-12-04T06:32:49.255Z,22.32
2022-12-04T06:33:53.515Z,22.3
2022-12-04T06:34:57.777Z,22.29
2022-12-04T06:36:02.009Z,22.28
2022-12-04T06:37:06.261Z,22.26
2022-12-04T06:38:13.529Z,22.24
2022-12-04T06:39:19.060Z,22.24
2022-12-04T06:40:23.449Z,22.26
2022-12-04T06:41:27.673Z,22.27
2022-12-04T06:42:31.920Z,22.29
2022-12-04T06:43:36.158Z,22.32
2022-12-04T06:44:40.377Z,22.35
2022-12-04T06:45:44.648Z,22.37
2022-12-04T06:46:50.013Z,22.49
2022-12-04T06:47:57.135Z,22.52
2022-12-04T06:49:01.376Z,22.49
2022-12-04T06:50:05.850Z,22.46
2022-12-04T06:51:11.107Z,22.46
2022-12-04T06:52:15.334Z,22.46
2022-12-04T06:53:19.597Z,22.46
2022-12-04T06:54:23.819Z,22.46
2022-12-04T06:55:28.053Z,22.45
2022-12-04T06:56:32.261Z,22.45
2022-12-04T06:57:36.481Z,22.46
2022-12-04T06:58:40.714Z,22.45
2022-12-04T06:59:44.966Z,22.44
2022-12-04T07:00:49.618Z,22.43
2022-12-04T07:01:54.049Z,22.41
2022-12-04T07:02:58.608Z,22.45
2022-12-04T07:04:02.876Z,22.49
2022-12-04T07:05:07.336Z,22.47
2022-12-04T07:06:11.574Z,22.44
2022-12-04T07:07:15.781Z,22.43
2022-12-04T07:08:20.056Z,22.41
2022-12-04T07:09:25.332Z,22.5
2022-12-04T07:10:29.536Z,22.51
2022-12-04T07:11:33.827Z,22.51
2022-12-04T07:12:38.110Z,22.51
2022-12-04T07:13:42.327Z,22.53
2022-12-04T07:14:46.593Z,22.54
2022-12-04T07:15:50.817Z,22.54
2022-12-04T07:16:55.119Z,22.54
2022-12-04T07:17:59.569Z,22.54
2022-12-04T07:19:03.820Z,22.54
2022-12-04T07:20:08.053Z,22.55
2022-12-04T07:21:12.279Z,22.58
2022-12-04T07:22:16.607Z,22.61
2022-12-04T07:23:20.841Z,22.59
2022-12-04T07:24:25.334Z,22.58
2022-12-04T07:25:29.575Z,22.63
2022-12-04T07:26:33.834Z,22.65
2022-12-04T07:27:38.090Z,22.64
2022-12-04T07:28:42.301Z,22.66
2022-12-04T07:29:46.561Z,22.67
2022-12-04T07:30:50.797Z,22.7
2022-12-04T07:31:55.138Z,22.75
2022-12-04T07:32:59.639Z,22.8
2022-12-04T07:34:03.872Z,22.86
2022-12-04T07:35:08.094Z,22.97
2022-12-04T07:36:12.331Z,23.06
2022-12-04T07:37:19.615Z,23.15
2022-12-04T07:38:23.856Z,23.22
2022-12-04T07:39:28.204Z,23.31
2022-12-04T07:40:32.444Z,23.38
2022-12-04T07:41:36.715Z,23.41
2022-12-04T07:42:40.956Z,23.47
2022-12-04T07:43:45.171Z,23.5
2022-12-04T07:44:49.393Z,23.5
2022-12-04T07:45:53.729Z,23.54
2022-12-04T07:46:58.188Z,23.49
2022-12-04T07:48:02.429Z,23.57
2022-12-04T07:49:06.687Z,23.55
2022-12-04T07:50:10.900Z,23.54
2022-12-04T07:51:15.151Z,23.53
2022-12-04T07:52:19.403Z,23.53
2022-12-04T07:53:23.664Z,23.48
2022-12-04T07:54:27.893Z,23.48
2022-12-04T07:55:32.166Z,23.46
2022-12-04T07:56:36.392Z,23.47
2022-12-04T07:57:40.615Z,23.46
2022-12-04T07:58:44.865Z,23.44
2022-12-04T07:59:49.077Z,23.4
2022-12-04T08:00:53.369Z,23.37
2022-12-04T08:01:57.906Z,23.35
2022-12-04T08:03:02.421Z,23.33
2022-12-04T08:04:06.702Z,23.33
2022-12-04T08:05:11.134Z,23.3
2022-12-04T08:06:15.406Z,23.29
2022-12-04T08:07:19.634Z,23.3
2022-12-04T08:08:23.845Z,23.25
2022-12-04T08:09:28.066Z,23.25
2022-12-04T08:10:32.272Z,23.22
2022-12-04T08:11:36.572Z,23.2
2022-12-04T08:12:40.803Z,23.21
2022-12-04T08:13:45.029Z,23.2
2022-12-04T08:14:49.268Z,23.24
2022-12-04T08:15:53.476Z,23.22
2022-12-04T08:16:57.792Z,23.18
2022-12-04T08:18:02.212Z,23.19
2022-12-04T08:19:06.446Z,23.15
2022-12-04T08:20:10.679Z,23.17
2022-12-04T08:21:14.884Z,23.17
2022-12-04T08:22:23.378Z,23.2
2022-12-04T08:23:29.091Z,23.19
2022-12-04T08:24:33.327Z,23.16
2022-12-04T08:25:37.607Z,23.17
2022-12-04T08:26:41.846Z,23.17
2022-12-04T08:27:47.587Z,23.13
2022-12-04T08:28:52.056Z,23.13
2022-12-04T08:29:56.447Z,23.09
2022-12-04T08:31:01.253Z,23.08
2022-12-04T08:32:05.608Z,23.09
2022-12-04T08:33:09.831Z,23.12
2022-12-04T08:34:14.052Z,23.12
2022-12-04T08:35:18.364Z,23.09
2022-12-04T08:36:22.997Z,23.1
2022-12-04T08:37:27.820Z,23.09
2022-12-04T08:38:32.940Z,23.06
2022-12-04T08:39:37.628Z,22.97
2022-12-04T08:40:42.513Z,22.92
2022-12-04T08:41:48.312Z,22.86
2022-12-04T08:42:59.771Z,22.88
2022-12-04T08:44:04.138Z,22.93
2022-12-04T08:45:08.425Z,23
2022-12-04T08:46:12.816Z,23.03
2022-12-04T08:47:17.360Z,23.04
2022-12-04T08:48:21.593Z,23.09
2022-12-04T08:49:25.837Z,23.11
2022-12-04T08:50:30.058Z,23.14
2022-12-04T08:51:34.276Z,23.11
2022-12-04T08:52:38.532Z,23.1
2022-12-04T08:53:42.737Z,23.1
2022-12-04T08:54:47.234Z,23.1
2022-12-04T08:55:51.456Z,23.08
2022-12-04T08:56:55.711Z,23.07
2022-12-04T08:57:59.980Z,23.08
2022-12-04T08:59:04.613Z,23.06
2022-12-04T09:00:08.954Z,23.04
2022-12-04T09:01:13.684Z,23.05
2022-12-04T09:02:18.700Z,23
2022-12-04T09:03:27.657Z,23
2022-12-04T09:04:36.266Z,22.99
2022-12-04T09:05:40.950Z,22.98
2022-12-04T09:06:46.049Z,22.99
2022-12-04T09:07:52.699Z,22.97
2022-12-04T09:08:58.066Z,22.96
2022-12-04T09:10:03.669Z,22.95
2022-12-04T09:11:08.147Z,22.91
2022-12-04T09:12:13.803Z,22.91
2022-12-04T09:13:19.968Z,22.93
2022-12-04T09:14:25.359Z,22.96
2022-12-04T09:15:30.296Z,22.96
2022-12-04T09:16:35.869Z,22.95
2022-12-04T09:17:41.531Z,22.94
2022-12-04T09:18:46.586Z,22.91
2022-12-04T09:19:51.549Z,22.94
2022-12-04T09:21:03.780Z,22.97
2022-12-04T09:22:09.647Z,22.94
2022-12-04T09:23:15.941Z,22.96
2022-12-04T09:24:20.994Z,22.96
2022-12-04T09:25:25.326Z,22.97
2022-12-04T09:26:30.264Z,22.97
2022-12-04T09:27:35.883Z,22.98
2022-12-04T09:28:41.518Z,22.97
2022-12-04T09:29:46.710Z,22.97
2022-12-04T09:30:51.111Z,22.97
2022-12-04T09:31:55.518Z,22.97
2022-12-04T09:33:00.265Z,22.98
2022-12-04T09:34:05.359Z,22.98
2022-12-04T09:35:10.549Z,23.01
2022-12-04T09:36:14.756Z,23.04
2022-12-04T09:37:19.862Z,23
2022-12-04T09:38:24.147Z,23.04
2022-12-04T09:39:28.792Z,23.03
2022-12-04T09:40:37.819Z,23.08
2022-12-04T09:41:42.626Z,23.11
2022-12-04T09:42:46.898Z,23.15
2022-12-04T09:43:51.147Z,23.24
2022-12-04T09:44:55.888Z,23.29
2022-12-04T09:46:00.256Z,23.34
2022-12-04T09:47:06.228Z,23.42
2022-12-04T09:48:10.867Z,23.49
2022-12-04T09:49:15.793Z,23.49
2022-12-04T09:50:21.825Z,23.51
2022-12-04T09:51:27.335Z,23.52
2022-12-04T09:52:31.589Z,23.53
2022-12-04T09:53:35.836Z,23.55
2022-12-04T09:54:40.525Z,23.56
2022-12-04T09:55:46.079Z,23.56
2022-12-04T09:56:50.979Z,23.53
2022-12-04T09:58:01.476Z,23.5
2022-12-04T09:59:06.475Z,23.49
2022-12-04T10:00:11.561Z,23.5
2022-12-04T10:01:15.885Z,23.47
2022-12-04T10:02:20.699Z,23.48
2022-12-04T10:03:26.524Z,23.48
2022-12-04T10:04:31.243Z,23.48
2022-12-04T10:05:35.559Z,23.48
2022-12-04T10:06:39.910Z,23.44
2022-12-04T10:07:44.235Z,23.38
2022-12-04T10:08:48.583Z,23.37
2022-12-04T10:09:53.291Z,23.38
2022-12-04T10:10:58.705Z,23.38
2022-12-04T10:12:03.026Z,23.36
2022-12-04T10:13:07.465Z,23.35
2022-12-04T10:14:11.721Z,23.33
2022-12-04T10:15:16.055Z,23.34
2022-12-04T10:16:20.371Z,23.33
2022-12-04T10:17:29.367Z,23.37
2022-12-04T10:18:36.678Z,23.39
2022-12-04T10:19:40.925Z,23.35
2022-12-04T10:20:45.173Z,23.38
2022-12-04T10:21:49.396Z,23.38
2022-12-04T10:22:53.611Z,23.4
2022-12-04T10:23:57.890Z,23.41
2022-12-04T10:25:02.157Z,23.38
2022-12-04T10:26:06.401Z,23.33
2022-12-04T10:27:10.649Z,23.36
2022-12-04T10:28:14.886Z,23.35
2022-12-04T10:29:19.101Z,23.34
2022-12-04T10:30:23.389Z,23.34
2022-12-04T10:31:27.721Z,23.31
2022-12-04T10:32:32.238Z,23.31
2022-12-04T10:33:36.468Z,23.33
2022-12-04T10:34:45.384Z,23.31
2022-12-04T10:35:49.805Z,23.31
2022-12-04T10:36:54.032Z,23.29
2022-12-04T10:37:58.691Z,23.3
2022-12-04T10:39:03.123Z,23.29
2022-12-04T10:40:07.425Z,23.28
2022-12-04T10:41:15.326Z,23.3
2022-12-04T10:42:19.625Z,23.27
2022-12-04T10:43:24.095Z,23.26
2022-12-04T10:44:28.338Z,23.26
2022-12-04T10:45:32.643Z,23.26
2022-12-04T10:46:39.573Z,23.25
2022-12-04T10:47:50.162Z,23.26
2022-12-04T10:48:55.127Z,23.26
2022-12-04T10:49:59.806Z,23.33
2022-12-04T10:51:04.130Z,23.35
2022-12-04T10:52:08.730Z,23.36
2022-12-04T10:53:13.905Z,23.39
2022-12-04T10:54:18.332Z,23.42
2022-12-04T10:55:22.564Z,23.44
2022-12-04T10:56:26.775Z,23.48
2022-12-04T10:57:31.168Z,23.5
2022-12-04T10:58:35.749Z,23.5
2022-12-04T10:59:40.640Z,23.51
2022-12-04T11:00:44.902Z,23.49
2022-12-04T11:01:49.317Z,23.47
2022-12-04T11:02:53.840Z,23.49
2022-12-04T11:03:58.331Z,23.48
2022-12-04T11:05:02.759Z,23.51
2022-12-04T11:06:07.347Z,23.53
2022-12-04T11:07:11.839Z,23.49
2022-12-04T11:08:19.775Z,23.45
2022-12-04T11:09:24.462Z,23.4
2022-12-04T11:10:28.749Z,23.41
2022-12-04T11:11:33.349Z,23.4
2022-12-04T11:12:37.680Z,23.46
2022-12-04T11:13:42.029Z,23.49
2022-12-04T11:14:47.271Z,23.46
2022-12-04T11:15:51.797Z,23.48
2022-12-04T11:16:56.276Z,23.47
2022-12-04T11:18:00.551Z,23.44
2022-12-04T11:19:04.845Z,23.39
2022-12-04T11:20:09.068Z,23.38
2022-12-04T11:21:13.334Z,23.39
2022-12-04T11:22:17.538Z,23.4
2022-12-04T11:23:21.911Z,23.39
2022-12-04T11:24:26.140Z,23.39
2022-12-04T11:25:30.398Z,23.42
2022-12-04T11:26:34.646Z,23.41
2022-12-04T11:27:38.870Z,23.42
2022-12-04T11:28:43.351Z,23.44
2022-12-04T11:29:47.682Z,23.45
2022-12-04T11:30:51.910Z,23.45
2022-12-04T11:31:56.236Z,23.42
2022-12-04T11:33:09.858Z,23.41
2022-12-04T11:34:14.262Z,23.39
2022-12-04T11:35:18.687Z,23.4
2022-12-04T11:36:23.550Z,23.39
2022-12-04T11:37:27.804Z,23.38
2022-12-04T11:38:32.025Z,23.39
2022-12-04T11:39:36.273Z,23.4
2022-12-04T11:40:40.613Z,23.41
2022-12-04T11:41:44.852Z,23.39
2022-12-04T11:42:49.114Z,23.39
2022-12-04T11:43:58.180Z,23.38
2022-12-04T11:45:04.520Z,23.37
2022-12-04T11:46:08.896Z,23.37
2022-12-04T11:47:13.327Z,23.39
2022-12-04T11:48:17.772Z,23.39
2022-12-04T11:49:21.989Z,23.36
2022-12-04T11:50:26.237Z,23.39
2022-12-04T11:51:30.483Z,23.37
2022-12-04T11:52:34.711Z,23.36
2022-12-04T11:53:38.943Z,23.33
2022-12-04T11:54:43.147Z,23.31
2022-12-04T11:55:47.366Z,23.29
2022-12-04T11:56:51.581Z,23.28
2022-12-04T11:57:55.809Z,23.27
2022-12-04T11:59:00.105Z,23.34
2022-12-04T12:00:04.318Z,23.34
2022-12-04T12:01:08.532Z,23.34
2022-12-04T12:02:12.883Z,23.41
2022-12-04T12:03:17.679Z,23.44
2022-12-04T12:04:22.437Z,23.43
2022-12-04T12:05:26.660Z,23.48
2022-12-04T12:06:31.008Z,23.52
2022-12-04T12:07:35.304Z,23.56
2022-12-04T12:08:39.666Z,23.57
2022-12-04T12:09:43.926Z,23.55
2022-12-04T12:10:48.258Z,23.57
2022-12-04T12:11:52.518Z,23.57
2022-12-04T12:12:57.016Z,23.59
2022-12-04T12:14:01.243Z,23.58
2022-12-04T12:15:05.530Z,23.6
2022-12-04T12:16:09.862Z,23.59
2022-12-04T12:17:14.299Z,23.57
2022-12-04T12:18:20.718Z,23.57
2022-12-04T12:19:26.634Z,23.58
2022-12-04T12:20:31.224Z,23.56
2022-12-04T12:21:35.472Z,23.57
2022-12-04T12:22:39.700Z,23.62
2022-12-04T12:23:44.002Z,23.59
2022-12-04T12:24:51.258Z,23.55
2022-12-04T12:25:55.890Z,23.55
2022-12-04T12:27:00.132Z,23.56
2022-12-04T12:28:04.444Z,23.56
2022-12-04T12:29:08.689Z,23.56
2022-12-04T12:30:12.926Z,23.51
2022-12-04T12:31:17.338Z,23.52
2022-12-04T12:32:21.816Z,23.55
2022-12-04T12:33:26.082Z,23.55
2022-12-04T12:34:30.306Z,23.53
2022-12-04T12:35:34.565Z,23.54
2022-12-04T12:36:43.523Z,23.53
2022-12-04T12:37:50.222Z,23.54
2022-12-04T12:38:55.466Z,23.5
2022-12-04T12:39:59.771Z,23.54
2022-12-04T12:41:03.981Z,23.55
2022-12-04T12:42:08.221Z,23.52
2022-12-04T12:43:12.487Z,23.53
2022-12-04T12:44:16.982Z,23.51
2022-12-04T12:45:21.195Z,23.49
2022-12-04T12:46:25.618Z,23.44
2022-12-04T12:47:30.190Z,23.37
2022-12-04T12:48:34.427Z,23.29
2022-12-04T12:49:38.658Z,23.29
2022-12-04T12:50:42.890Z,23.29
2022-12-04T12:51:47.116Z,23.28
2022-12-04T12:52:51.318Z,23.28
2022-12-04T12:53:55.550Z,23.32
2022-12-04T12:54:59.779Z,23.32
2022-12-04T12:56:04.014Z,23.31
2022-12-04T12:57:08.252Z,23.29
2022-12-04T12:58:12.463Z,23.31
2022-12-04T12:59:16.726Z,23.31
2022-12-04T13:00:20.963Z,23.31
2022-12-04T13:01:25.213Z,23.29
2022-12-04T13:02:29.764Z,23.28
2022-12-04T13:03:34.359Z,23.27
2022-12-04T13:04:38.633Z,23.27
2022-12-04T13:05:43.147Z,23.28
2022-12-04T13:06:47.422Z,23.28
2022-12-04T13:07:51.676Z,23.3
2022-12-04T13:08:56.071Z,23.31
2022-12-04T13:10:00.335Z,23.33
2022-12-04T13:11:04.555Z,23.34
2022-12-04T13:12:08.778Z,23.37
2022-12-04T13:13:13.116Z,23.39
2022-12-04T13:14:17.346Z,23.38
2022-12-04T13:15:21.582Z,23.37
2022-12-04T13:16:25.826Z,23.35
2022-12-04T13:17:30.197Z,23.35
2022-12-04T13:18:34.456Z,23.35
2022-12-04T13:19:38.684Z,23.34
2022-12-04T13:20:42.909Z,23.34
2022-12-04T13:21:47.131Z,23.32
2022-12-04T13:22:51.366Z,23.31
2022-12-04T13:23:55.619Z,23.27
2022-12-04T13:24:59.890Z,23.26
2022-12-04T13:26:04.226Z,23.26
2022-12-04T13:27:08.448Z,23.23
2022-12-04T13:28:12.720Z,23.27
2022-12-04T13:29:16.979Z,23.24
2022-12-04T13:30:21.216Z,23.2
2022-12-04T13:31:25.731Z,23.16
2022-12-04T13:32:30.236Z,23.14
2022-12-04T13:33:34.476Z,23.12
2022-12-04T13:34:38.686Z,23.09
2022-12-04T13:35:42.917Z,23.08
2022-12-04T13:36:47.156Z,23.06
2022-12-04T13:37:51.375Z,23.03
2022-12-04T13:38:58.211Z,23.01
2022-12-04T13:40:02.611Z,22.99
2022-12-04T13:41:06.831Z,22.98
2022-12-04T13:42:11.105Z,22.96
2022-12-04T13:43:15.329Z,22.93
2022-12-04T13:44:19.534Z,22.92
2022-12-04T13:45:23.739Z,22.89
2022-12-04T13:46:28.032Z,22.89
2022-12-04T13:47:32.615Z,22.87
2022-12-04T13:48:36.822Z,22.85
2022-12-04T13:49:41.048Z,22.84
2022-12-04T13:50:45.300Z,22.81
2022-12-04T13:51:52.051Z,22.79
2022-12-04T13:52:56.253Z,22.77
2022-12-04T13:54:00.477Z,22.74
2022-12-04T13:55:04.702Z,22.72